Time;durP1;ratioP1;P1;durP2;ratioP2;P2;SDS_P1;SDS_P2;PMS_P1;PMS_P2;Temp;Humidity;BMP_temperature;BMP_pressure;BME280_temperature;BME280_humidity;BME280_pressure;Samples;Min_cycle;Max_cycle;Signal;HPM_P1;HPM_P2
2020/12/09 00:01:29;;;;;;;28.27;18.83;;;;;;;;;;5025588;28;20184;-78
2020/12/09 00:03:56;;;;;;;28.00;18.47;;;;;;;;;;5034842;28;20220;-78
2020/12/09 00:06:22;;;;;;;32.17;17.10;;;;;;;;;;5035250;28;20172;-78
2020/12/09 00:08:47;;;;;;;27.20;15.97;;;;;;;;;;5035205;28;20168;-78
2020/12/09 00:11:13;;;;;;;28.83;17.70;;;;;;;;;;5034618;28;20196;-78
2020/12/09 00:13:38;;;;;;;31.70;17.77;;;;;;;;;;5034664;28;20172;-78
2020/12/09 00:16:04;;;;;;;27.73;17.03;;;;;;;;;;5034901;28;20177;-79
2020/12/09 00:18:29;;;;;;;27.93;16.63;;;;;;;;;;5034764;28;20501;-78
2020/12/09 00:20:55;;;;;;;28.30;17.07;;;;;;;;;;5034578;28;20172;-79
2020/12/09 00:23:20;;;;;;;33.13;18.57;;;;;;;;;;5034687;28;20200;-79
2020/12/09 00:25:45;;;;;;;27.97;16.50;;;;;;;;;;5034705;28;20172;-78
2020/12/09 00:28:11;;;;;;;31.60;17.77;;;;;;;;;;5034475;28;20192;-79
2020/12/09 00:30:37;;;;;;;22.37;13.13;;;;;;;;;;5034406;28;20219;-78
2020/12/09 00:33:02;;;;;;;31.60;18.47;;;;;;;;;;5034203;28;20299;-79
2020/12/09 00:35:27;;;;;;;31.03;18.77;;;;;;;;;;5034455;28;20165;-78
2020/12/09 00:37:53;;;;;;;28.50;15.43;;;;;;;;;;5034172;28;20208;-78
2020/12/09 00:40:18;;;;;;;30.87;18.47;;;;;;;;;;5034326;28;20181;-79
2020/12/09 00:42:44;;;;;;;28.70;16.77;;;;;;;;;;5034301;28;20429;-78
2020/12/09 00:45:12;;;;;;;29.03;17.27;;;;;;;;;;5033833;28;20179;-80
2020/12/09 00:47:41;;;;;;;25.87;15.27;;;;;;;;;;5030839;28;20314;-79
2020/12/09 00:52:38;;;;;;;35.00;19.53;;;;;;;;;;5033161;28;20179;-79
2020/12/09 00:55:04;;;;;;;30.63;19.53;;;;;;;;;;5032790;28;20555;-80
2020/12/09 00:57:29;;;;;;;35.87;20.53;;;;;;;;;;5032958;28;20222;-79
2020/12/09 00:59:54;;;;;;;31.67;18.43;;;;;;;;;;5032402;28;20293;-79
2020/12/09 01:02:20;;;;;;;30.87;18.67;;;;;;;;;;5032673;28;20173;-79
2020/12/09 01:04:49;;;;;;;30.73;19.73;;;;;;;;;;5034538;28;20219;-78
2020/12/09 01:07:15;;;;;;;34.53;20.37;;;;;;;;;;5034071;28;20180;-78
2020/12/09 01:09:40;;;;;;;31.27;16.87;;;;;;;;;;5034055;28;20169;-78
2020/12/09 01:12:05;;;;;;;28.13;16.33;;;;;;;;;;5034226;28;20180;-78
2020/12/09 01:14:31;;;;;;;33.97;19.40;;;;;;;;;;5033734;28;20176;-78
2020/12/09 01:17:00;;;;;;;25.77;14.10;;;;;;;;;;5033942;28;20516;-78
2020/12/09 01:19:25;;;;;;;31.67;14.90;;;;;;;;;;5034460;28;20188;-78
2020/12/09 01:21:50;;;;;;;32.87;18.50;;;;;;;;;;5033846;28;20607;-78
2020/12/09 01:24:16;;;;;;;24.33;13.57;;;;;;;;;;5033645;28;20196;-78
2020/12/09 01:26:42;;;;;;;33.80;19.00;;;;;;;;;;5033888;28;20169;-78
2020/12/09 01:29:08;;;;;;;33.50;19.27;;;;;;;;;;5033768;28;20189;-78
2020/12/09 01:31:33;;;;;;;31.20;18.43;;;;;;;;;;5033746;28;20310;-78
2020/12/09 01:33:58;;;;;;;36.13;21.97;;;;;;;;;;5034141;28;20175;-78
2020/12/09 01:36:24;;;;;;;27.67;16.30;;;;;;;;;;5033637;28;20168;-78
2020/12/09 01:38:50;;;;;;;32.20;17.57;;;;;;;;;;5033825;28;20268;-78
2020/12/09 01:41:19;;;;;;;29.90;16.83;;;;;;;;;;5034108;28;20176;-78
2020/12/09 01:43:45;;;;;;;33.23;18.77;;;;;;;;;;5033738;28;20200;-78
2020/12/09 01:46:12;;;;;;;31.43;17.90;;;;;;;;;;5034530;28;20177;-78
2020/12/09 01:48:37;;;;;;;31.40;19.90;;;;;;;;;;5033673;28;20183;-78
2020/12/09 01:51:02;;;;;;;28.50;15.33;;;;;;;;;;5033885;28;20251;-78
2020/12/09 01:53:28;;;;;;;32.70;17.57;;;;;;;;;;5033690;28;20179;-78
2020/12/09 01:55:53;;;;;;;32.67;19.50;;;;;;;;;;5033881;28;20173;-78
2020/12/09 01:58:18;;;;;;;34.90;17.97;;;;;;;;;;5034187;28;20267;-78
2020/12/09 02:00:44;;;;;;;36.00;19.03;;;;;;;;;;5037962;28;20180;-78
2020/12/09 02:03:09;;;;;;;28.53;14.73;;;;;;;;;;5037095;28;20204;-78
2020/12/09 02:05:34;;;;;;;30.97;18.63;;;;;;;;;;5037637;28;20611;-78
2020/12/09 02:08:00;;;;;;;32.60;19.37;;;;;;;;;;5037684;28;20176;-78
2020/12/09 02:10:25;;;;;;;31.93;18.73;;;;;;;;;;5037175;28;20633;-78
2020/12/09 02:12:50;;;;;;;27.23;16.23;;;;;;;;;;5037193;28;20172;-78
2020/12/09 02:15:16;;;;;;;31.07;18.43;;;;;;;;;;5037426;28;20176;-78
2020/12/09 02:17:42;;;;;;;36.90;20.77;;;;;;;;;;5037039;28;20169;-78
2020/12/09 02:20:08;;;;;;;35.00;19.80;;;;;;;;;;5037129;28;20176;-79
2020/12/09 02:22:34;;;;;;;33.87;19.73;;;;;;;;;;5053461;28;20157;-78
2020/12/09 02:24:59;;;;;;;31.17;17.93;;;;;;;;;;5061630;28;20183;-78
2020/12/09 02:27:24;;;;;;;33.97;17.40;;;;;;;;;;5050022;28;20181;-79
2020/12/09 02:29:50;;;;;;;32.00;18.57;;;;;;;;;;5037241;28;20177;-78
2020/12/09 02:32:15;;;;;;;33.60;17.70;;;;;;;;;;5036648;28;20200;-78
2020/12/09 02:34:40;;;;;;;33.97;18.60;;;;;;;;;;5036872;28;20172;-79
2020/12/09 02:37:06;;;;;;;34.33;19.87;;;;;;;;;;5036814;28;20169;-78
2020/12/09 02:39:33;;;;;;;34.70;19.70;;;;;;;;;;5037067;28;20176;-78
2020/12/09 02:41:58;;;;;;;29.37;16.07;;;;;;;;;;5036936;28;20172;-79
2020/12/09 02:44:23;;;;;;;29.20;15.33;;;;;;;;;;5036591;28;20201;-78
2020/12/09 02:46:49;;;;;;;28.70;16.63;;;;;;;;;;5036345;28;20177;-78
2020/12/09 02:49:14;;;;;;;30.60;16.27;;;;;;;;;;5037102;28;20177;-78
2020/12/09 02:51:39;;;;;;;32.33;18.53;;;;;;;;;;5035206;28;20619;-78
2020/12/09 02:54:05;;;;;;;30.73;18.20;;;;;;;;;;5036484;28;20241;-78
2020/12/09 02:56:30;;;;;;;29.97;17.37;;;;;;;;;;5036432;28;20301;-78
2020/12/09 02:58:55;;;;;;;25.40;14.90;;;;;;;;;;5036210;28;20228;-78
2020/12/09 03:01:21;;;;;;;33.67;17.73;;;;;;;;;;5036530;28;20181;-78
2020/12/09 03:03:46;;;;;;;26.30;14.97;;;;;;;;;;5036036;28;20203;-78
2020/12/09 03:06:12;;;;;;;33.30;17.30;;;;;;;;;;5036296;28;20229;-78
2020/12/09 03:08:38;;;;;;;25.53;14.50;;;;;;;;;;5036255;28;20496;-78
2020/12/09 03:11:03;;;;;;;32.23;19.20;;;;;;;;;;5035508;28;20530;-78
2020/12/09 03:13:28;;;;;;;33.50;18.70;;;;;;;;;;5036426;28;20190;-78
2020/12/09 03:15:53;;;;;;;29.60;17.30;;;;;;;;;;5035928;28;20177;-78
2020/12/09 03:18:19;;;;;;;29.10;16.67;;;;;;;;;;5036668;28;20183;-78
2020/12/09 03:20:45;;;;;;;29.93;15.60;;;;;;;;;;5036041;28;20196;-78
2020/12/09 03:23:10;;;;;;;32.10;18.50;;;;;;;;;;5035965;28;20283;-78
2020/12/09 03:25:36;;;;;;;33.97;20.00;;;;;;;;;;5035682;28;20199;-78
2020/12/09 03:28:01;;;;;;;35.07;20.27;;;;;;;;;;5036028;28;20196;-79
2020/12/09 03:30:26;;;;;;;38.63;21.10;;;;;;;;;;5035841;28;20226;-79
2020/12/09 03:32:52;;;;;;;34.30;18.17;;;;;;;;;;5035812;28;20199;-79
2020/12/09 03:35:17;;;;;;;35.13;20.67;;;;;;;;;;5035952;28;20523;-78
2020/12/09 03:37:42;;;;;;;32.53;19.73;;;;;;;;;;5035637;28;20161;-78
2020/12/09 03:40:08;;;;;;;34.87;19.70;;;;;;;;;;5036219;28;20291;-78
2020/12/09 03:42:33;;;;;;;30.13;17.93;;;;;;;;;;5035143;28;20169;-78
2020/12/09 03:44:58;;;;;;;24.53;13.77;;;;;;;;;;5035444;28;20179;-78
2020/12/09 03:47:24;;;;;;;31.20;16.23;;;;;;;;;;5035708;28;20172;-78
2020/12/09 03:49:49;;;;;;;30.00;17.60;;;;;;;;;;5035417;28;20561;-79
2020/12/09 03:52:14;;;;;;;33.13;19.23;;;;;;;;;;5035704;28;20180;-78
2020/12/09 03:54:40;;;;;;;27.03;14.97;;;;;;;;;;5033731;28;20200;-78
2020/12/09 03:57:05;;;;;;;32.57;18.57;;;;;;;;;;5035543;28;20168;-78
2020/12/09 03:59:30;;;;;;;19.87;10.73;;;;;;;;;;5034934;28;20252;-78
2020/12/09 04:01:56;;;;;;;29.00;16.93;;;;;;;;;;5035161;28;20165;-78
2020/12/09 04:04:21;;;;;;;33.67;19.50;;;;;;;;;;5034707;28;20211;-78
2020/12/09 04:06:46;;;;;;;35.47;19.20;;;;;;;;;;5034759;28;20172;-78
2020/12/09 04:09:12;;;;;;;31.07;18.33;;;;;;;;;;5034782;28;20175;-78
2020/12/09 04:11:37;;;;;;;30.00;16.33;;;;;;;;;;5034687;28;20533;-79
2020/12/09 04:14:02;;;;;;;34.60;19.10;;;;;;;;;;5035201;28;20259;-79
2020/12/09 04:16:28;;;;;;;34.77;18.77;;;;;;;;;;5035143;28;20168;-78
2020/12/09 04:18:53;;;;;;;34.03;20.20;;;;;;;;;;5034826;28;20187;-78
2020/12/09 04:21:19;;;;;;;32.77;18.53;;;;;;;;;;5034279;28;20178;-79
2020/12/09 04:23:44;;;;;;;36.40;21.17;;;;;;;;;;5035257;28;20208;-79
2020/12/09 04:26:09;;;;;;;35.63;19.43;;;;;;;;;;5034731;28;20173;-78
2020/12/09 04:28:35;;;;;;;30.17;18.07;;;;;;;;;;5034562;28;20200;-78
2020/12/09 04:31:00;;;;;;;37.67;20.10;;;;;;;;;;5035171;28;20565;-79
2020/12/09 04:33:29;;;;;;;37.33;20.70;;;;;;;;;;5034888;28;20179;-78
2020/12/09 04:35:55;;;;;;;33.23;18.30;;;;;;;;;;5034266;28;20184;-79
2020/12/09 04:38:20;;;;;;;35.13;21.83;;;;;;;;;;5034471;28;20176;-78
2020/12/09 04:40:46;;;;;;;29.47;16.23;;;;;;;;;;5034750;28;20173;-78
2020/12/09 04:43:11;;;;;;;34.67;19.53;;;;;;;;;;5034345;28;20211;-79
2020/12/09 04:45:37;;;;;;;43.53;25.90;;;;;;;;;;5034323;28;20173;-78
2020/12/09 04:48:10;;;;;;;40.13;23.23;;;;;;;;;;5034604;28;20510;-79
2020/12/09 04:50:40;;;;;;;45.07;25.53;;;;;;;;;;5035121;28;20177;-78
2020/12/09 04:53:38;;;;;;;48.03;27.60;;;;;;;;;;5034355;28;20168;-78
2020/12/09 04:56:03;;;;;;;23.50;14.87;;;;;;;;;;5043798;28;20238;-78
2020/12/09 04:58:29;;;;;;;35.90;19.23;;;;;;;;;;5034662;28;20224;-78
2020/12/09 05:01:02;;;;;;;34.47;17.63;;;;;;;;;;5033791;28;20177;-79
2020/12/09 05:03:33;;;;;;;32.33;15.43;;;;;;;;;;5034651;28;20200;-79
2020/12/09 05:05:58;;;;;;;53.90;29.30;;;;;;;;;;5050209;28;20558;-79
2020/12/09 05:08:29;;;;;;;40.47;21.37;;;;;;;;;;5033812;28;20290;-78
2020/12/09 05:10:55;;;;;;;34.97;20.33;;;;;;;;;;5034655;28;20165;-78
2020/12/09 05:13:23;;;;;;;45.40;27.53;;;;;;;;;;5033631;28;20230;-78
2020/12/09 05:15:56;;;;;;;37.33;20.07;;;;;;;;;;5033667;28;20532;-78
2020/12/09 05:18:36;;;;;;;34.63;18.63;;;;;;;;;;5034244;28;20267;-78
2020/12/09 05:21:15;;;;;;;40.63;22.40;;;;;;;;;;5034257;28;20175;-79
2020/12/09 05:23:51;;;;;;;100.17;39.83;;;;;;;;;;5034114;28;20654;-79
2020/12/09 05:26:27;;;;;;;33.83;20.47;;;;;;;;;;5033706;28;20183;-78
2020/12/09 05:29:22;;;;;;;36.50;21.03;;;;;;;;;;5033631;28;20199;-78
2020/12/09 05:31:57;;;;;;;30.00;16.33;;;;;;;;;;5038471;28;20212;-78
2020/12/09 05:34:22;;;;;;;38.90;19.37;;;;;;;;;;5037073;28;20191;-78
2020/12/09 05:36:52;;;;;;;33.67;17.07;;;;;;;;;;5038675;28;20515;-78
2020/12/09 05:39:17;;;;;;;44.13;23.27;;;;;;;;;;5037502;28;20219;-78
2020/12/09 05:41:43;;;;;;;83.90;28.80;;;;;;;;;;5037716;28;20173;-78
2020/12/09 05:44:08;;;;;;;45.80;26.07;;;;;;;;;;5053114;28;20654;-78
2020/12/09 05:46:34;;;;;;;46.47;24.37;;;;;;;;;;5037578;28;20177;-78
2020/12/09 05:48:59;;;;;;;53.00;26.23;;;;;;;;;;5037636;28;20168;-78
2020/12/09 05:51:25;;;;;;;50.77;27.20;;;;;;;;;;5037547;28;20177;-78
2020/12/09 05:53:50;;;;;;;39.57;22.37;;;;;;;;;;5037572;28;20176;-78
2020/12/09 05:56:26;;;;;;;48.80;25.07;;;;;;;;;;5037193;28;20177;-78
2020/12/09 05:58:51;;;;;;;62.30;28.27;;;;;;;;;;5037493;28;20261;-79
2020/12/09 06:01:17;;;;;;;83.07;34.53;;;;;;;;;;5037657;28;20207;-78
2020/12/09 06:03:46;;;;;;;51.67;27.00;;;;;;;;;;5037320;28;20613;-78
2020/12/09 06:06:12;;;;;;;48.57;23.17;;;;;;;;;;5037112;28;20507;-78
2020/12/09 06:08:39;;;;;;;45.33;24.23;;;;;;;;;;5037240;28;20169;-78
2020/12/09 06:11:04;;;;;;;40.87;26.40;;;;;;;;;;5037462;28;20176;-78
2020/12/09 06:13:33;;;;;;;29.40;14.80;;;;;;;;;;5036913;28;20179;-79
2020/12/09 06:16:05;;;;;;;43.43;20.17;;;;;;;;;;5036882;28;20623;-79
2020/12/09 06:18:31;;;;;;;68.30;32.53;;;;;;;;;;5037140;28;20169;-78
2020/12/09 06:20:57;;;;;;;72.80;35.07;;;;;;;;;;5036855;28;20207;-79
2020/12/09 06:23:23;;;;;;;42.33;21.37;;;;;;;;;;5037116;28;20743;-79
2020/12/09 06:25:49;;;;;;;45.70;22.63;;;;;;;;;;5037602;28;20204;-79
2020/12/09 06:28:15;;;;;;;37.30;24.67;;;;;;;;;;5036865;28;20601;-79
2020/12/09 06:30:41;;;;;;;32.67;18.20;;;;;;;;;;5036986;28;20675;-79
2020/12/09 06:33:07;;;;;;;40.40;22.60;;;;;;;;;;5036982;28;20267;-78
2020/12/09 06:35:32;;;;;;;45.60;21.47;;;;;;;;;;5037266;28;20619;-79
2020/12/09 06:38:09;;;;;;;41.77;22.60;;;;;;;;;;5036730;28;20263;-79
2020/12/09 06:40:36;;;;;;;46.57;24.17;;;;;;;;;;5036914;28;20184;-79
2020/12/09 06:43:07;;;;;;;66.60;26.30;;;;;;;;;;5036737;28;20211;-79
2020/12/09 06:45:42;;;;;;;47.83;23.90;;;;;;;;;;5036816;28;20530;-78
2020/12/09 06:48:08;;;;;;;47.60;24.70;;;;;;;;;;5036815;28;20192;-78
2020/12/09 06:50:33;;;;;;;40.90;21.80;;;;;;;;;;5036327;28;20203;-79
2020/12/09 06:53:10;;;;;;;49.53;25.57;;;;;;;;;;5036389;28;20179;-79
2020/12/09 06:55:35;;;;;;;47.53;23.97;;;;;;;;;;5036661;28;20164;-78
2020/12/09 06:58:20;;;;;;;44.20;23.27;;;;;;;;;;5036786;28;20232;-78
2020/12/09 07:00:57;;;;;;;76.33;35.23;;;;;;;;;;5037228;28;20215;-79
2020/12/09 07:03:26;;;;;;;51.80;28.17;;;;;;;;;;5036889;28;20535;-78
2020/12/09 07:05:52;;;;;;;115.67;46.63;;;;;;;;;;5036846;28;20188;-78
2020/12/09 07:08:17;;;;;;;87.60;39.67;;;;;;;;;;5036304;28;20635;-79
2020/12/09 07:10:42;;;;;;;59.50;29.43;;;;;;;;;;5058046;28;20216;-78
2020/12/09 07:13:12;;;;;;;45.97;23.87;;;;;;;;;;5052151;28;20173;-78
2020/12/09 07:15:39;;;;;;;45.87;27.27;;;;;;;;;;5036114;28;20176;-78
2020/12/09 07:18:05;;;;;;;134.67;51.53;;;;;;;;;;5036131;28;20165;-78
2020/12/09 07:20:30;;;;;;;52.60;25.80;;;;;;;;;;5036634;28;20176;-78
2020/12/09 07:22:56;;;;;;;175.50;56.90;;;;;;;;;;5036231;28;20168;-78
2020/12/09 07:25:21;;;;;;;47.97;23.70;;;;;;;;;;5036201;28;20206;-79
2020/12/09 07:27:47;;;;;;;54.20;25.23;;;;;;;;;;5035806;28;20193;-79
2020/12/09 07:30:14;;;;;;;48.17;21.77;;;;;;;;;;5035622;28;20168;-79
2020/12/09 07:32:39;;;;;;;42.53;22.60;;;;;;;;;;5035800;28;20619;-79
2020/12/09 07:35:06;;;;;;;43.03;22.80;;;;;;;;;;5035540;28;20187;-79
2020/12/09 07:37:34;;;;;;;38.30;19.03;;;;;;;;;;5035715;28;20172;-79
2020/12/09 07:40:08;;;;;;;39.97;22.67;;;;;;;;;;5035638;28;20230;-79
2020/12/09 07:42:33;;;;;;;57.23;30.00;;;;;;;;;;5036195;28;20222;-79
2020/12/09 07:44:58;;;;;;;51.67;24.33;;;;;;;;;;5035797;28;20204;-78
2020/12/09 07:47:25;;;;;;;100.17;42.67;;;;;;;;;;5035335;28;20175;-79
2020/12/09 07:49:52;;;;;;;62.70;32.80;;;;;;;;;;5035787;28;20184;-79
2020/12/09 07:52:18;;;;;;;53.70;24.23;;;;;;;;;;5035253;28;20177;-78
2020/12/09 07:54:43;;;;;;;45.63;21.93;;;;;;;;;;5035356;28;20235;-79
2020/12/09 07:57:09;;;;;;;46.80;24.27;;;;;;;;;;5034962;28;20537;-78
2020/12/09 07:59:34;;;;;;;46.40;20.70;;;;;;;;;;5035320;28;20751;-79
2020/12/09 08:02:16;;;;;;;62.70;30.10;;;;;;;;;;5034951;28;20168;-79
2020/12/09 08:04:41;;;;;;;41.60;23.30;;;;;;;;;;5035534;28;20196;-79
2020/12/09 08:07:16;;;;;;;45.90;23.37;;;;;;;;;;5035555;28;20175;-78
2020/12/09 08:09:41;;;;;;;50.70;28.67;;;;;;;;;;5035151;28;20183;-79
2020/12/09 08:12:07;;;;;;;39.57;24.40;;;;;;;;;;5035505;28;20169;-79
2020/12/09 08:14:32;;;;;;;45.80;26.03;;;;;;;;;;5034905;28;20615;-79
2020/12/09 08:16:58;;;;;;;52.23;29.87;;;;;;;;;;5034853;28;20219;-79
2020/12/09 08:19:23;;;;;;;64.83;36.77;;;;;;;;;;5034597;28;20634;-79
2020/12/09 08:22:03;;;;;;;122.03;52.30;;;;;;;;;;5034492;28;20227;-79
2020/12/09 08:24:28;;;;;;;50.77;29.27;;;;;;;;;;5034719;28;20279;-79
2020/12/09 08:26:55;;;;;;;42.40;23.57;;;;;;;;;;5034432;28;20694;-79
2020/12/09 08:29:20;;;;;;;42.37;24.70;;;;;;;;;;5034768;28;20234;-79
2020/12/09 08:31:45;;;;;;;31.07;19.97;;;;;;;;;;5034420;28;20172;-79
2020/12/09 08:34:14;;;;;;;34.33;20.50;;;;;;;;;;5034754;28;20200;-79
2020/12/09 08:36:40;;;;;;;38.13;20.93;;;;;;;;;;5034423;28;20657;-79
2020/12/09 08:39:06;;;;;;;36.03;20.23;;;;;;;;;;5034424;28;20176;-79
2020/12/09 08:41:33;;;;;;;26.77;14.90;;;;;;;;;;5034405;28;20195;-79
2020/12/09 08:43:58;;;;;;;34.97;21.10;;;;;;;;;;5034562;28;20196;-79
2020/12/09 08:46:25;;;;;;;38.23;19.17;;;;;;;;;;5034028;28;20168;-78
2020/12/09 08:48:50;;;;;;;57.63;29.67;;;;;;;;;;5034759;28;20176;-78
2020/12/09 08:51:16;;;;;;;39.67;21.97;;;;;;;;;;5034481;28;20207;-79
2020/12/09 08:53:41;;;;;;;43.90;26.13;;;;;;;;;;5032922;28;20512;-79
2020/12/09 08:56:07;;;;;;;34.17;17.77;;;;;;;;;;5033939;28;20172;-79
2020/12/09 08:58:32;;;;;;;33.30;17.97;;;;;;;;;;5034644;28;20224;-79
2020/12/09 09:00:59;;;;;;;32.60;19.87;;;;;;;;;;5031389;28;20533;-79
2020/12/09 09:03:26;;;;;;;38.33;19.93;;;;;;;;;;5020370;28;20212;-79
2020/12/09 09:05:55;;;;;;;40.87;23.17;;;;;;;;;;5021459;28;20177;-79
2020/12/09 09:08:21;;;;;;;55.90;31.93;;;;;;;;;;5022156;28;20687;-79
2020/12/09 09:10:46;;;;;;;92.20;46.73;;;;;;;;;;5023180;28;20264;-79
2020/12/09 09:13:12;;;;;;;99.57;44.47;;;;;;;;;;5022554;28;20173;-80
2020/12/09 09:15:37;;;;;;;66.60;32.03;;;;;;;;;;5023545;28;20527;-79
2020/12/09 09:18:04;;;;;;;39.87;22.90;;;;;;;;;;5021584;28;20181;-78
2020/12/09 09:20:29;;;;;;;36.50;20.93;;;;;;;;;;5022778;28;20192;-79
2020/12/09 09:22:55;;;;;;;30.17;17.77;;;;;;;;;;5030374;28;20188;-79
2020/12/09 09:25:21;;;;;;;49.57;26.70;;;;;;;;;;5033787;28;20244;-79
2020/12/09 09:27:47;;;;;;;55.23;29.27;;;;;;;;;;5033850;28;20192;-79
2020/12/09 09:30:12;;;;;;;27.20;16.20;;;;;;;;;;5034265;28;20168;-78
2020/12/09 09:32:37;;;;;;;64.27;34.33;;;;;;;;;;5033657;28;20244;-79
2020/12/09 09:35:03;;;;;;;46.87;23.60;;;;;;;;;;5029811;28;20183;-79
2020/12/09 09:37:29;;;;;;;44.57;24.17;;;;;;;;;;5028737;28;20181;-79
2020/12/09 09:39:54;;;;;;;76.97;36.60;;;;;;;;;;5030970;28;20180;-79
2020/12/09 09:42:19;;;;;;;91.57;47.27;;;;;;;;;;5030443;28;20172;-79
2020/12/09 09:44:45;;;;;;;42.20;23.17;;;;;;;;;;5031709;28;20196;-79
2020/12/09 09:47:11;;;;;;;38.10;21.73;;;;;;;;;;5031740;28;20512;-79
2020/12/09 09:49:37;;;;;;;50.03;26.90;;;;;;;;;;5031707;28;20168;-79
2020/12/09 09:52:02;;;;;;;52.07;31.27;;;;;;;;;;5031709;28;20631;-80
2020/12/09 09:54:27;;;;;;;47.30;27.33;;;;;;;;;;5031831;28;20169;-79
2020/12/09 09:56:53;;;;;;;59.07;29.80;;;;;;;;;;5031401;28;20164;-79
2020/12/09 09:59:18;;;;;;;53.37;28.33;;;;;;;;;;5031337;28;20314;-79
2020/12/09 10:01:43;;;;;;;51.57;29.20;;;;;;;;;;5024918;28;20184;-79
2020/12/09 10:04:09;;;;;;;43.53;24.83;;;;;;;;;;5028166;28;20275;-78
2020/12/09 10:06:35;;;;;;;53.23;26.80;;;;;;;;;;5031034;28;20226;-79
2020/12/09 10:09:00;;;;;;;35.93;19.43;;;;;;;;;;5031451;28;20646;-80
2020/12/09 10:11:26;;;;;;;50.17;25.00;;;;;;;;;;5031169;28;20172;-79
2020/12/09 10:13:52;;;;;;;57.13;29.47;;;;;;;;;;5031062;28;20177;-79
2020/12/09 10:16:25;;;;;;;54.60;27.43;;;;;;;;;;5031666;28;20176;-79
2020/12/09 10:18:51;;;;;;;45.97;25.57;;;;;;;;;;5031773;28;20168;-79
2020/12/09 10:21:26;;;;;;;47.37;26.10;;;;;;;;;;5032951;28;20523;-79
2020/12/09 10:23:51;;;;;;;45.83;23.93;;;;;;;;;;5015090;28;20223;-79
2020/12/09 10:26:17;;;;;;;43.97;24.13;;;;;;;;;;5015344;28;20165;-79
2020/12/09 10:28:43;;;;;;;39.87;19.13;;;;;;;;;;5015287;28;20203;-78
2020/12/09 10:31:09;;;;;;;40.13;21.23;;;;;;;;;;5015188;28;20552;-79
2020/12/09 10:33:34;;;;;;;54.30;29.07;;;;;;;;;;5015205;28;20402;-79
2020/12/09 10:35:59;;;;;;;49.83;26.00;;;;;;;;;;5015224;28;20173;-80
2020/12/09 10:38:25;;;;;;;46.87;26.20;;;;;;;;;;5015091;28;20196;-79
2020/12/09 10:40:50;;;;;;;42.20;24.30;;;;;;;;;;5025163;28;20527;-80
2020/12/09 10:43:16;;;;;;;45.77;24.03;;;;;;;;;;5034452;28;20557;-79
2020/12/09 10:45:41;;;;;;;36.90;20.77;;;;;;;;;;5034868;28;20246;-80
2020/12/09 10:48:06;;;;;;;48.33;26.07;;;;;;;;;;5034496;28;20260;-79
2020/12/09 10:50:32;;;;;;;47.93;26.13;;;;;;;;;;5034674;28;20177;-80
2020/12/09 10:52:57;;;;;;;36.40;21.17;;;;;;;;;;5034404;28;20168;-79
2020/12/09 10:55:23;;;;;;;48.30;25.73;;;;;;;;;;5035943;28;20173;-78
2020/12/09 10:57:48;;;;;;;39.77;21.87;;;;;;;;;;5035798;28;20180;-78
2020/12/09 11:00:14;;;;;;;46.80;26.70;;;;;;;;;;5036661;28;20188;-78
2020/12/09 11:02:39;;;;;;;43.07;23.57;;;;;;;;;;5036164;28;20169;-79
2020/12/09 11:05:05;;;;;;;35.13;19.20;;;;;;;;;;5035958;28;20266;-79
2020/12/09 11:07:30;;;;;;;40.40;21.87;;;;;;;;;;5036206;28;20179;-79
2020/12/09 11:09:55;;;;;;;40.93;23.03;;;;;;;;;;5036010;28;20246;-79
2020/12/09 11:12:21;;;;;;;51.37;26.43;;;;;;;;;;5036196;28;20227;-79
2020/12/09 11:14:46;;;;;;;49.57;26.77;;;;;;;;;;5035850;28;20180;-79
2020/12/09 11:17:11;;;;;;;45.67;26.60;;;;;;;;;;5036310;28;20165;-79
2020/12/09 11:19:37;;;;;;;58.80;32.60;;;;;;;;;;5036255;28;20169;-79
2020/12/09 11:22:03;;;;;;;51.63;28.10;;;;;;;;;;5036201;28;20192;-79
2020/12/09 11:24:28;;;;;;;56.90;29.70;;;;;;;;;;5023783;28;20209;-79
2020/12/09 11:26:53;;;;;;;52.13;25.43;;;;;;;;;;5015886;28;20173;-79
2020/12/09 11:29:19;;;;;;;51.73;31.40;;;;;;;;;;5015975;28;20656;-79
2020/12/09 11:31:45;;;;;;;50.27;26.70;;;;;;;;;;5014835;28;20174;-79
2020/12/09 11:34:10;;;;;;;46.17;25.77;;;;;;;;;;5016206;28;20223;-78
2020/12/09 11:36:36;;;;;;;52.10;27.73;;;;;;;;;;5015934;28;20176;-78
2020/12/09 11:39:01;;;;;;;43.17;22.23;;;;;;;;;;5015520;28;20173;-79
2020/12/09 11:41:28;;;;;;;47.03;23.97;;;;;;;;;;5015536;28;20169;-79
2020/12/09 11:43:55;;;;;;;47.80;25.17;;;;;;;;;;5015696;28;20525;-79
2020/12/09 11:46:23;;;;;;;46.33;27.50;;;;;;;;;;5016038;28;20173;-79
2020/12/09 11:48:49;;;;;;;49.67;27.13;;;;;;;;;;5015945;28;20612;-79
2020/12/09 11:51:15;;;;;;;52.30;27.33;;;;;;;;;;5015643;28;20260;-79
2020/12/09 11:53:41;;;;;;;54.80;32.00;;;;;;;;;;5015589;28;20256;-79
2020/12/09 11:56:06;;;;;;;54.00;27.90;;;;;;;;;;5015476;28;20173;-79
2020/12/09 11:58:32;;;;;;;47.53;28.67;;;;;;;;;;5014817;28;20591;-79
2020/12/09 12:00:57;;;;;;;50.47;26.40;;;;;;;;;;5015421;28;20695;-78
2020/12/09 12:03:23;;;;;;;47.13;25.20;;;;;;;;;;5015304;28;20229;-78
2020/12/09 12:05:52;;;;;;;52.83;27.97;;;;;;;;;;5019480;28;20223;-79
2020/12/09 12:08:17;;;;;;;47.17;25.93;;;;;;;;;;5015235;28;20223;-78
2020/12/09 12:10:43;;;;;;;51.10;26.53;;;;;;;;;;5015197;28;20200;-78
2020/12/09 12:13:08;;;;;;;56.27;28.30;;;;;;;;;;5015189;28;20177;-78
2020/12/09 12:15:33;;;;;;;37.27;17.73;;;;;;;;;;5014734;28;20611;-78
2020/12/09 12:17:59;;;;;;;55.97;31.33;;;;;;;;;;5030929;28;20180;-78
2020/12/09 12:20:24;;;;;;;54.07;28.00;;;;;;;;;;5034455;28;20177;-78
2020/12/09 12:22:49;;;;;;;62.50;31.27;;;;;;;;;;5034926;28;20173;-78
2020/12/09 12:25:15;;;;;;;50.30;28.07;;;;;;;;;;5034511;28;20164;-79
2020/12/09 12:27:40;;;;;;;47.33;26.90;;;;;;;;;;5034710;28;20169;-78
2020/12/09 12:30:06;;;;;;;47.70;28.30;;;;;;;;;;5034155;28;20512;-78
2020/12/09 12:32:31;;;;;;;53.57;27.40;;;;;;;;;;5034548;28;20176;-78
2020/12/09 12:34:56;;;;;;;55.43;29.93;;;;;;;;;;5034274;28;20679;-79
2020/12/09 12:37:22;;;;;;;44.80;24.87;;;;;;;;;;5034130;28;20291;-78
2020/12/09 12:39:47;;;;;;;46.10;24.87;;;;;;;;;;5034190;28;20175;-78
2020/12/09 12:42:12;;;;;;;48.37;24.90;;;;;;;;;;5034251;28;20172;-79
2020/12/09 12:44:38;;;;;;;54.97;29.77;;;;;;;;;;5034326;28;20199;-79
2020/12/09 12:47:03;;;;;;;48.13;25.90;;;;;;;;;;5033469;28;20215;-79
2020/12/09 12:49:28;;;;;;;47.50;24.77;;;;;;;;;;5033781;28;20169;-79
2020/12/09 12:51:57;;;;;;;31.70;15.57;;;;;;;;;;5034004;28;20177;-79
2020/12/09 12:54:22;;;;;;;37.27;23.07;;;;;;;;;;5034477;28;20615;-79
2020/12/09 12:56:48;;;;;;;42.90;24.67;;;;;;;;;;5033881;28;20182;-79
2020/12/09 12:59:13;;;;;;;45.93;25.40;;;;;;;;;;5034115;28;20278;-80
2020/12/09 13:01:38;;;;;;;51.97;27.23;;;;;;;;;;5033715;28;20183;-79
2020/12/09 13:04:03;;;;;;;46.80;26.53;;;;;;;;;;5033660;28;20295;-79
2020/12/09 13:06:29;;;;;;;43.73;19.97;;;;;;;;;;5029756;28;20246;-79
2020/12/09 13:08:54;;;;;;;41.97;20.80;;;;;;;;;;5022538;28;20189;-79
2020/12/09 13:11:20;;;;;;;43.47;25.87;;;;;;;;;;5030276;28;20259;-79
2020/12/09 13:13:45;;;;;;;45.90;25.80;;;;;;;;;;5033470;28;20227;-80
2020/12/09 13:16:10;;;;;;;48.27;26.40;;;;;;;;;;5033241;28;20629;-79
2020/12/09 13:18:36;;;;;;;49.43;30.20;;;;;;;;;;5033729;28;20611;-80
2020/12/09 13:21:01;;;;;;;64.63;34.10;;;;;;;;;;5032654;28;20173;-79
2020/12/09 13:23:27;;;;;;;61.20;32.93;;;;;;;;;;5033498;28;20556;-79
2020/12/09 13:25:52;;;;;;;47.67;27.47;;;;;;;;;;5033570;28;20615;-79
2020/12/09 13:28:18;;;;;;;55.07;27.73;;;;;;;;;;5034049;28;20184;-79
2020/12/09 13:30:43;;;;;;;47.10;27.67;;;;;;;;;;5031484;28;20179;-79
2020/12/09 13:33:12;;;;;;;45.60;23.77;;;;;;;;;;5033549;28;20663;-79
2020/12/09 13:35:39;;;;;;;48.10;27.03;;;;;;;;;;5032757;28;20177;-79
2020/12/09 13:38:05;;;;;;;46.90;24.70;;;;;;;;;;5031537;28;20196;-79
2020/12/09 13:40:30;;;;;;;42.13;22.77;;;;;;;;;;5030513;28;20277;-80
2020/12/09 13:42:55;;;;;;;46.67;25.63;;;;;;;;;;5029959;28;20164;-79
2020/12/09 13:45:21;;;;;;;41.07;23.60;;;;;;;;;;5029511;28;20626;-80
2020/12/09 13:47:46;;;;;;;42.97;22.17;;;;;;;;;;5029600;28;20183;-79
2020/12/09 13:50:11;;;;;;;43.40;21.70;;;;;;;;;;5030172;28;20251;-79
2020/12/09 13:52:37;;;;;;;49.03;26.83;;;;;;;;;;5016134;28;20243;-79
2020/12/09 13:55:03;;;;;;;41.17;19.90;;;;;;;;;;5033797;28;20192;-79
2020/12/09 13:57:28;;;;;;;55.40;28.67;;;;;;;;;;5035443;28;20188;-79
2020/12/09 13:59:54;;;;;;;44.00;23.10;;;;;;;;;;5035730;28;20282;-80
2020/12/09 14:02:19;;;;;;;52.90;29.77;;;;;;;;;;5035735;28;20176;-79
2020/12/09 14:04:45;;;;;;;47.47;26.67;;;;;;;;;;5035448;28;20551;-80
2020/12/09 14:07:10;;;;;;;49.73;26.37;;;;;;;;;;5035421;28;20200;-80
2020/12/09 14:09:35;;;;;;;51.87;27.00;;;;;;;;;;5035537;28;20179;-80
2020/12/09 14:12:01;;;;;;;45.87;25.77;;;;;;;;;;5035820;28;20295;-80
2020/12/09 14:14:27;;;;;;;53.93;28.73;;;;;;;;;;5035222;28;20222;-79